createdAt,value
2018-10-18T00:00:23.533Z,16.89
2018-10-18T00:02:51.669Z,16.88
2018-10-18T00:05:19.766Z,16.87
2018-10-18T00:07:47.829Z,16.88
2018-10-18T00:10:15.916Z,16.87
2018-10-18T00:12:43.998Z,16.86
2018-10-18T00:15:12.347Z,16.85
2018-10-18T00:17:47.403Z,16.84
2018-10-18T00:20:16.353Z,16.83
2018-10-18T00:22:45.174Z,16.83
2018-10-18T00:25:13.457Z,16.81
2018-10-18T00:27:41.578Z,16.81
2018-10-18T00:30:11.870Z,16.80
2018-10-18T00:32:40.113Z,16.79
2018-10-18T00:35:08.409Z,16.79
2018-10-18T00:37:36.670Z,16.79
2018-10-18T00:40:04.802Z,16.78
2018-10-18T00:42:32.890Z,16.77
2018-10-18T00:45:00.989Z,16.77
2018-10-18T00:47:29.102Z,16.76
2018-10-18T00:49:57.216Z,16.73
2018-10-18T00:52:25.293Z,16.65
2018-10-18T00:54:53.417Z,16.62
2018-10-18T00:57:21.509Z,16.60
2018-10-18T00:59:49.612Z,16.58
2018-10-18T01:02:17.764Z,16.58
2018-10-18T01:04:45.901Z,16.57
2018-10-18T01:07:13.981Z,16.59
2018-10-18T01:09:42.074Z,16.59
2018-10-18T01:12:10.258Z,16.61
2018-10-18T01:14:38.281Z,16.60
2018-10-18T01:17:06.650Z,16.61
2018-10-18T01:19:36.022Z,16.60
2018-10-18T01:22:05.311Z,16.56
2018-10-18T01:24:33.681Z,16.54
2018-10-18T01:27:01.765Z,16.53
2018-10-18T01:29:29.869Z,16.54
2018-10-18T01:31:58.456Z,16.49
2018-10-18T01:34:26.546Z,16.44
2018-10-18T01:36:54.689Z,16.42
2018-10-18T01:39:22.805Z,16.40
2018-10-18T01:41:50.894Z,16.37
2018-10-18T01:44:18.985Z,16.36
2018-10-18T01:46:47.065Z,16.35
2018-10-18T01:49:15.177Z,16.34
2018-10-18T01:51:43.261Z,16.33
2018-10-18T01:54:11.424Z,16.32
2018-10-18T01:56:39.438Z,16.30
2018-10-18T01:59:07.525Z,16.30
2018-10-18T02:01:35.629Z,16.29
2018-10-18T02:04:03.709Z,16.25
2018-10-18T02:06:31.798Z,16.19
2018-10-18T02:08:59.881Z,16.16
2018-10-18T02:11:27.978Z,16.17
2018-10-18T02:13:56.061Z,16.17
2018-10-18T02:16:24.169Z,16.15
2018-10-18T02:18:52.255Z,16.14
2018-10-18T02:21:20.376Z,16.15
2018-10-18T02:23:48.473Z,16.16
2018-10-18T02:26:16.561Z,16.16
2018-10-18T02:28:44.638Z,16.14
2018-10-18T02:31:12.784Z,16.12
2018-10-18T02:33:40.879Z,16.09
2018-10-18T02:36:09.007Z,16.08
2018-10-18T02:38:37.099Z,16.06
2018-10-18T02:41:05.240Z,16.05
2018-10-18T02:43:33.331Z,16.03
2018-10-18T02:46:01.414Z,16.02
2018-10-18T02:48:29.491Z,16.01
2018-10-18T02:50:57.581Z,15.98
2018-10-18T02:53:25.674Z,15.98
2018-10-18T02:55:53.784Z,15.96
2018-10-18T02:58:21.889Z,15.95
2018-10-18T03:00:49.977Z,15.93
2018-10-18T03:03:18.107Z,15.90
2018-10-18T03:05:46.204Z,15.86
2018-10-18T03:08:14.273Z,15.82
2018-10-18T03:10:42.379Z,15.81
2018-10-18T03:13:10.509Z,15.78
2018-10-18T03:15:38.593Z,15.75
2018-10-18T03:18:06.852Z,15.67
2018-10-18T03:20:34.950Z,15.66
2018-10-18T03:23:03.021Z,15.65
2018-10-18T03:25:31.114Z,15.65
2018-10-18T03:27:59.202Z,15.65
2018-10-18T03:30:27.306Z,15.66
2018-10-18T03:32:55.410Z,15.65
2018-10-18T03:35:23.506Z,15.66
2018-10-18T03:37:51.597Z,15.65
2018-10-18T03:40:19.681Z,15.65
2018-10-18T03:42:47.768Z,15.66
2018-10-18T03:45:15.862Z,15.65
2018-10-18T03:47:43.966Z,15.65
2018-10-18T03:50:12.045Z,15.66
2018-10-18T03:52:40.150Z,15.66
2018-10-18T03:55:08.261Z,15.67
2018-10-18T03:57:36.374Z,15.67
2018-10-18T04:00:04.647Z,15.68
2018-10-18T04:02:32.750Z,15.69
2018-10-18T04:05:00.854Z,15.68
2018-10-18T04:07:28.974Z,15.68
2018-10-18T04:09:57.069Z,15.69
2018-10-18T04:12:25.183Z,15.69
2018-10-18T04:14:53.257Z,15.70
2018-10-18T04:17:21.344Z,15.69
2018-10-18T04:19:49.437Z,15.71
2018-10-18T04:22:17.525Z,15.69
2018-10-18T04:24:45.637Z,15.70
2018-10-18T04:27:13.737Z,15.70
2018-10-18T04:29:41.809Z,15.70
2018-10-18T04:32:09.895Z,15.70
2018-10-18T04:34:37.972Z,15.69
2018-10-18T04:37:06.090Z,15.67
2018-10-18T04:39:34.189Z,15.67
2018-10-18T04:42:02.315Z,15.67
2018-10-18T04:44:30.399Z,15.64
2018-10-18T04:47:05.841Z,15.64
2018-10-18T04:49:33.902Z,15.61
2018-10-18T04:52:02.002Z,15.59
2018-10-18T04:54:30.089Z,15.58
2018-10-18T04:56:58.273Z,15.59
2018-10-18T04:59:26.278Z,15.58
2018-10-18T05:01:54.389Z,15.58
2018-10-18T05:04:22.472Z,15.58
2018-10-18T05:06:50.593Z,15.57
2018-10-18T05:09:18.682Z,15.56
2018-10-18T05:11:46.776Z,15.56
2018-10-18T05:14:14.885Z,15.55
2018-10-18T05:16:42.969Z,15.54
2018-10-18T05:19:11.201Z,15.54
2018-10-18T05:21:39.182Z,15.53
2018-10-18T05:24:07.302Z,15.52
2018-10-18T05:26:35.377Z,15.50
2018-10-18T05:29:03.465Z,15.51
2018-10-18T05:31:31.555Z,15.51
2018-10-18T05:33:59.731Z,15.50
2018-10-18T05:36:27.813Z,15.51
2018-10-18T05:38:55.920Z,15.52
2018-10-18T05:41:24.243Z,15.53
2018-10-18T05:43:52.369Z,15.54
2018-10-18T05:46:20.449Z,15.55
2018-10-18T05:48:48.533Z,15.55
2018-10-18T05:51:16.634Z,15.56
2018-10-18T05:53:44.872Z,15.54
2018-10-18T05:56:12.850Z,15.54
2018-10-18T05:58:40.965Z,15.53
2018-10-18T06:01:09.056Z,15.54
2018-10-18T06:03:37.153Z,15.54
2018-10-18T06:06:05.415Z,15.52
2018-10-18T06:08:33.513Z,15.53
2018-10-18T06:11:13.058Z,15.52
2018-10-18T06:13:41.211Z,15.41
2018-10-18T06:16:09.328Z,15.39
2018-10-18T06:18:37.437Z,15.42
2018-10-18T06:21:05.530Z,15.44
2018-10-18T06:23:33.641Z,15.47
2018-10-18T06:26:01.748Z,15.48
2018-10-18T06:28:29.843Z,15.48
2018-10-18T06:30:57.936Z,15.47
2018-10-18T06:33:26.058Z,15.47
2018-10-18T06:35:54.149Z,15.49
2018-10-18T06:38:22.226Z,15.49
2018-10-18T06:40:50.376Z,15.51
2018-10-18T06:43:18.617Z,15.50
2018-10-18T06:45:46.619Z,15.52
2018-10-18T06:48:14.702Z,15.52
2018-10-18T06:50:42.782Z,15.55
2018-10-18T06:53:10.877Z,15.54
2018-10-18T06:55:38.989Z,15.55
2018-10-18T06:58:07.098Z,15.53
2018-10-18T07:00:35.197Z,15.50
2018-10-18T07:03:03.311Z,15.45
2018-10-18T07:05:31.410Z,15.40
2018-10-18T07:07:59.485Z,15.41
2018-10-18T07:10:27.582Z,15.49
2018-10-18T07:12:55.678Z,15.52
2018-10-18T07:15:23.753Z,15.67
2018-10-18T07:17:51.973Z,15.73
2018-10-18T07:20:19.985Z,15.77
2018-10-18T07:22:48.081Z,15.84
2018-10-18T07:25:16.596Z,15.87
2018-10-18T07:27:44.649Z,15.89
2018-10-18T07:30:14.747Z,15.92
2018-10-18T07:32:43.040Z,15.99
2018-10-18T07:35:12.267Z,16.05
2018-10-18T07:37:40.328Z,16.10
2018-10-18T07:40:10.655Z,16.08
2018-10-18T07:42:38.737Z,16.10
2018-10-18T07:45:07.679Z,16.10
2018-10-18T07:47:35.752Z,16.06
2018-10-18T07:50:03.845Z,16.00
2018-10-18T07:52:31.981Z,16.01
2018-10-18T07:55:00.063Z,16.02
2018-10-18T07:57:28.154Z,16.05
2018-10-18T07:59:56.308Z,15.99
2018-10-18T08:02:24.358Z,16.02
2018-10-18T08:04:52.453Z,16.06
2018-10-18T08:07:20.554Z,16.09
2018-10-18T08:09:48.699Z,16.10
2018-10-18T08:12:16.790Z,16.09
2018-10-18T08:14:44.882Z,16.10
2018-10-18T08:17:13.043Z,16.13
2018-10-18T08:19:41.145Z,16.15
2018-10-18T08:22:09.241Z,16.16
2018-10-18T08:24:37.325Z,16.19
2018-10-18T08:27:05.462Z,16.22
2018-10-18T08:29:33.667Z,16.25
2018-10-18T08:32:01.658Z,16.30
2018-10-18T08:34:29.785Z,16.34
2018-10-18T08:36:57.924Z,16.34
2018-10-18T08:39:25.973Z,16.35
2018-10-18T08:41:54.072Z,16.39
2018-10-18T08:44:22.223Z,16.39
2018-10-18T08:46:50.362Z,16.42
2018-10-18T08:49:18.545Z,16.45
2018-10-18T08:51:46.551Z,16.50
2018-10-18T08:54:14.630Z,16.51
2018-10-18T08:56:42.742Z,16.49
2018-10-18T08:59:10.874Z,16.51
2018-10-18T09:01:38.913Z,16.54
2018-10-18T09:04:07.046Z,16.58
2018-10-18T09:06:35.129Z,16.63
2018-10-18T09:09:03.616Z,16.67
2018-10-18T09:11:31.693Z,16.72
2018-10-18T09:13:59.774Z,16.77
2018-10-18T09:16:27.861Z,16.83
2018-10-18T09:18:56.007Z,16.88
2018-10-18T09:21:24.114Z,16.93
2018-10-18T09:23:52.307Z,17.00
2018-10-18T09:26:20.346Z,17.06
2018-10-18T09:28:48.678Z,17.10
2018-10-18T09:31:16.871Z,17.08
2018-10-18T09:33:44.889Z,17.06
2018-10-18T09:36:12.974Z,17.04
2018-10-18T09:38:41.262Z,17.08
2018-10-18T09:41:09.190Z,17.14
2018-10-18T09:43:37.342Z,17.17
2018-10-18T09:46:05.977Z,17.18
2018-10-18T09:48:34.070Z,17.21
2018-10-18T09:51:02.153Z,17.23
2018-10-18T09:53:30.294Z,17.24
2018-10-18T09:55:58.364Z,17.25
2018-10-18T09:58:26.457Z,17.24
2018-10-18T10:00:59.973Z,17.22
2018-10-18T10:03:28.053Z,17.19
2018-10-18T10:05:56.156Z,17.19
2018-10-18T10:08:24.252Z,17.21
2018-10-18T10:10:52.329Z,17.23
2018-10-18T10:13:20.554Z,17.27
2018-10-18T10:15:48.529Z,17.25
2018-10-18T10:18:16.697Z,17.22
2018-10-18T10:20:44.741Z,17.17
2018-10-18T10:23:12.843Z,17.16
2018-10-18T10:25:40.921Z,17.14
2018-10-18T10:28:09.060Z,17.09
2018-10-18T10:30:37.145Z,16.99
2018-10-18T10:33:05.465Z,17.12
2018-10-18T10:35:33.610Z,17.54
2018-10-18T10:38:01.717Z,17.92
2018-10-18T10:40:29.801Z,18.27
2018-10-18T10:42:57.951Z,18.17
2018-10-18T10:45:26.038Z,18.04
2018-10-18T10:47:54.153Z,17.91
2018-10-18T10:50:22.277Z,17.77
2018-10-18T10:52:50.344Z,17.60
2018-10-18T10:55:18.442Z,17.47
2018-10-18T10:57:46.533Z,17.36
2018-10-18T11:00:23.175Z,17.29
2018-10-18T11:02:51.258Z,17.19
2018-10-18T11:05:19.362Z,17.11
2018-10-18T11:07:47.453Z,17.04
2018-10-18T11:10:15.569Z,16.99
2018-10-18T11:12:43.659Z,16.88
2018-10-18T11:15:11.768Z,16.78
2018-10-18T11:17:39.836Z,16.73
2018-10-18T11:20:07.980Z,16.67
2018-10-18T11:22:36.069Z,16.60
2018-10-18T11:25:04.224Z,16.56
2018-10-18T11:27:32.299Z,16.48
2018-10-18T11:30:00.400Z,16.40
2018-10-18T11:32:28.542Z,16.35
2018-10-18T11:34:56.604Z,16.35
2018-10-18T11:37:24.654Z,16.32
2018-10-18T11:39:52.729Z,16.27
2018-10-18T11:42:20.913Z,16.23
2018-10-18T11:44:48.885Z,16.20
2018-10-18T11:47:16.969Z,16.18
2018-10-18T11:49:45.068Z,16.16
2018-10-18T11:52:13.140Z,16.15
2018-10-18T11:54:41.181Z,16.15
2018-10-18T11:57:09.220Z,16.12
2018-10-18T11:59:37.276Z,16.06
2018-10-18T12:02:06.008Z,16.06
2018-10-18T12:04:34.001Z,16.08
2018-10-18T12:07:02.061Z,16.09
2018-10-18T12:09:30.556Z,16.10
2018-10-18T12:11:58.597Z,16.09
2018-10-18T12:14:26.661Z,16.25
2018-10-18T12:16:54.711Z,16.37
2018-10-18T12:19:22.788Z,16.42
2018-10-18T12:21:50.823Z,16.40
2018-10-18T12:24:18.850Z,16.45
2018-10-18T12:26:46.938Z,16.56
2018-10-18T12:29:15.171Z,16.62
2018-10-18T12:31:43.149Z,16.63
2018-10-18T12:34:11.172Z,16.59
2018-10-18T12:36:39.212Z,16.65
2018-10-18T12:39:08.668Z,16.83
2018-10-18T12:41:36.808Z,16.91
2018-10-18T12:44:04.871Z,16.93
2018-10-18T12:46:32.860Z,16.88
2018-10-18T12:49:00.903Z,16.89
2018-10-18T12:51:28.967Z,16.91
2018-10-18T12:53:57.074Z,16.97
2018-10-18T12:56:25.108Z,16.97
2018-10-18T12:58:53.156Z,17.02
2018-10-18T13:01:21.220Z,17.02
2018-10-18T13:03:49.276Z,17.04
2018-10-18T13:06:17.433Z,17.04
2018-10-18T13:08:45.412Z,17.11
2018-10-18T13:11:13.482Z,17.29
2018-10-18T13:13:41.556Z,17.53
2018-10-18T13:16:09.649Z,17.65
2018-10-18T13:18:37.716Z,17.84
2018-10-18T13:21:05.920Z,17.81
2018-10-18T13:23:33.980Z,17.74
2018-10-18T13:26:02.097Z,17.81
2018-10-18T13:28:30.073Z,17.98
2018-10-18T13:30:58.153Z,18.09
2018-10-18T13:33:26.201Z,18.21
2018-10-18T13:35:54.322Z,18.38
2018-10-18T13:38:22.349Z,18.58
2018-10-18T13:40:50.486Z,18.80
2018-10-18T13:43:18.485Z,19.00
2018-10-18T13:45:46.651Z,19.15
2018-10-18T13:48:14.735Z,19.11
2018-10-18T13:50:42.753Z,19.18
2018-10-18T13:53:10.824Z,19.29
2018-10-18T13:55:38.896Z,19.25
2018-10-18T13:58:06.956Z,19.23
2018-10-18T14:00:35.004Z,19.34
2018-10-18T14:03:03.069Z,19.46
2018-10-18T14:05:31.126Z,19.49
2018-10-18T14:07:59.225Z,19.53
2018-10-18T14:10:27.229Z,19.63
2018-10-18T14:12:55.298Z,19.63
2018-10-18T14:15:23.353Z,19.73
2018-10-18T14:17:51.558Z,19.81
2018-10-18T14:20:19.639Z,19.89
2018-10-18T14:22:47.592Z,19.94
2018-10-18T14:25:15.663Z,19.98
2018-10-18T14:27:43.719Z,20.04
2018-10-18T14:30:12.653Z,20.08
2018-10-18T14:32:40.700Z,20.03
2018-10-18T14:35:10.199Z,19.94
2018-10-18T14:37:38.237Z,19.95
2018-10-18T14:40:07.381Z,19.97
2018-10-18T14:42:35.453Z,19.97
2018-10-18T14:45:03.620Z,19.95
2018-10-18T14:47:31.617Z,19.87
2018-10-18T14:49:59.665Z,19.76
2018-10-18T14:52:27.695Z,19.64
2018-10-18T14:54:55.780Z,19.63
2018-10-18T14:57:23.877Z,19.58
2018-10-18T14:59:52.076Z,19.44
2018-10-18T15:02:20.130Z,19.38
2018-10-18T15:04:48.173Z,19.30
2018-10-18T15:07:16.251Z,19.25
2018-10-18T15:09:44.355Z,19.19
2018-10-18T15:12:12.393Z,19.13
2018-10-18T15:14:40.442Z,19.00
2018-10-18T15:17:08.569Z,19.03
2018-10-18T15:19:36.619Z,19.02
2018-10-18T15:22:04.680Z,19.01
2018-10-18T15:24:32.799Z,18.96
2018-10-18T15:27:00.956Z,18.81
2018-10-18T15:29:28.970Z,18.69
2018-10-18T15:31:57.122Z,18.61
2018-10-18T15:34:25.146Z,18.52
2018-10-18T15:36:53.311Z,18.42
2018-10-18T15:39:21.535Z,18.33
2018-10-18T15:41:49.441Z,18.29
2018-10-18T15:44:17.514Z,18.21
2018-10-18T15:46:45.591Z,18.13
2018-10-18T15:49:13.613Z,18.08
2018-10-18T15:51:41.659Z,17.99
2018-10-18T15:54:09.789Z,17.85
2018-10-18T15:56:37.760Z,17.70
2018-10-18T15:59:05.877Z,17.48
2018-10-18T16:01:33.912Z,17.26
2018-10-18T16:04:01.967Z,17.06
2018-10-18T16:06:30.105Z,16.88
2018-10-18T16:08:58.141Z,16.72
2018-10-18T16:11:26.289Z,16.55
2018-10-18T16:13:54.272Z,16.40
2018-10-18T16:16:22.316Z,16.24
2018-10-18T16:18:50.360Z,16.09
2018-10-18T16:21:18.437Z,15.96
2018-10-18T16:23:46.471Z,15.83
2018-10-18T16:26:14.585Z,15.72
2018-10-18T16:28:42.584Z,15.61
2018-10-18T16:31:10.637Z,15.50
2018-10-18T16:33:38.697Z,15.40
2018-10-18T16:36:06.777Z,15.30
2018-10-18T16:38:34.911Z,15.19
2018-10-18T16:41:03.037Z,15.09
2018-10-18T16:43:31.023Z,14.99
2018-10-18T16:45:59.097Z,14.90
2018-10-18T16:48:27.140Z,14.83
2018-10-18T16:50:55.188Z,14.74
2018-10-18T16:53:23.240Z,14.63
2018-10-18T16:55:51.290Z,14.55
2018-10-18T16:58:19.356Z,14.47
2018-10-18T17:00:47.396Z,14.40
2018-10-18T17:03:15.454Z,14.33
2018-10-18T17:05:43.500Z,14.24
2018-10-18T17:08:11.576Z,14.17
2018-10-18T17:10:39.648Z,14.10
2018-10-18T17:13:07.712Z,14.02
2018-10-18T17:15:35.769Z,13.95
2018-10-18T17:18:03.834Z,13.87
2018-10-18T17:20:31.873Z,13.79
2018-10-18T17:22:59.913Z,13.74
2018-10-18T17:25:27.993Z,13.66
2018-10-18T17:27:56.055Z,13.59
2018-10-18T17:30:24.098Z,13.52
2018-10-18T17:32:52.153Z,13.44
2018-10-18T17:35:20.268Z,13.38
2018-10-18T17:37:49.153Z,13.33
2018-10-18T17:40:17.318Z,13.25
2018-10-18T17:42:45.298Z,13.18
2018-10-18T17:45:13.573Z,13.11
2018-10-18T17:47:42.243Z,13.03
2018-10-18T17:50:10.768Z,12.97
2018-10-18T17:52:38.795Z,12.91
2018-10-18T17:55:07.579Z,12.84
2018-10-18T17:57:35.850Z,12.77
2018-10-18T18:00:05.453Z,12.70
2018-10-18T18:02:33.408Z,12.65
2018-10-18T18:05:01.473Z,12.61
2018-10-18T18:07:29.541Z,12.56
2018-10-18T18:09:57.662Z,12.51
2018-10-18T18:12:25.681Z,12.45
2018-10-18T18:14:53.728Z,12.41
2018-10-18T18:17:21.789Z,12.36
2018-10-18T18:19:49.850Z,12.32
2018-10-18T18:22:17.924Z,12.26
2018-10-18T18:24:45.971Z,12.20
2018-10-18T18:27:14.021Z,12.12
2018-10-18T18:29:42.051Z,12.06
2018-10-18T18:32:10.107Z,12.00
2018-10-18T18:34:38.331Z,11.93
2018-10-18T18:37:06.383Z,11.89
2018-10-18T18:39:34.456Z,11.87
2018-10-18T18:42:02.524Z,11.82
2018-10-18T18:44:30.588Z,11.77
2018-10-18T18:46:58.649Z,11.72
2018-10-18T18:49:26.714Z,11.71
2018-10-18T18:51:54.776Z,11.67
2018-10-18T18:54:22.993Z,11.63
2018-10-18T18:56:51.064Z,11.58
2018-10-18T18:59:19.117Z,11.55
2018-10-18T19:01:47.410Z,11.52
2018-10-18T19:04:15.503Z,11.47
2018-10-18T19:06:43.553Z,11.44
2018-10-18T19:09:11.710Z,11.40
2018-10-18T19:11:39.995Z,11.38
2018-10-18T19:14:08.743Z,11.36
2018-10-18T19:16:36.750Z,11.34
2018-10-18T19:19:05.244Z,11.33
2018-10-18T19:21:33.304Z,11.30
2018-10-18T19:24:01.372Z,11.28
2018-10-18T19:26:29.416Z,11.26
2018-10-18T19:28:57.477Z,11.24
2018-10-18T19:31:25.527Z,11.21
2018-10-18T19:33:53.624Z,11.17
2018-10-18T19:36:21.683Z,11.11
2018-10-18T19:38:49.741Z,11.06
2018-10-18T19:41:17.805Z,11.02
2018-10-18T19:43:45.879Z,10.98
2018-10-18T19:46:14.052Z,10.95
2018-10-18T19:48:41.974Z,10.92
2018-10-18T19:51:10.096Z,10.88
2018-10-18T19:53:38.144Z,10.85
2018-10-18T19:56:06.241Z,10.82
2018-10-18T19:58:34.427Z,10.77
2018-10-18T20:01:02.356Z,10.75
2018-10-18T20:03:30.424Z,10.74
2018-10-18T20:05:58.484Z,10.71
2018-10-18T20:08:26.548Z,10.71
2018-10-18T20:10:54.613Z,10.68
2018-10-18T20:13:22.675Z,10.65
2018-10-18T20:15:50.738Z,10.62
2018-10-18T20:18:18.809Z,10.58
2018-10-18T20:20:46.840Z,10.55
2018-10-18T20:23:14.904Z,10.52
2018-10-18T20:25:43.010Z,10.48
2018-10-18T20:28:11.040Z,10.44
2018-10-18T20:30:39.096Z,10.41
2018-10-18T20:33:07.166Z,10.37
2018-10-18T20:35:35.275Z,10.34
2018-10-18T20:38:03.272Z,10.31
2018-10-18T20:40:31.335Z,10.26
2018-10-18T20:42:59.399Z,10.22
2018-10-18T20:45:33.940Z,10.19
2018-10-18T20:48:02.212Z,10.14
2018-10-18T20:50:30.136Z,10.11
2018-10-18T20:52:58.196Z,10.06
2018-10-18T20:55:26.250Z,10.03
2018-10-18T20:57:54.315Z,9.97
2018-10-18T21:00:22.375Z,9.94
2018-10-18T21:02:50.427Z,9.89
2018-10-18T21:05:18.460Z,9.86
2018-10-18T21:07:46.507Z,9.82
2018-10-18T21:10:14.568Z,9.79
2018-10-18T21:12:42.623Z,9.76
2018-10-18T21:15:10.729Z,9.71
2018-10-18T21:17:38.949Z,9.68
2018-10-18T21:20:07.036Z,9.63
2018-10-18T21:22:35.145Z,9.60
2018-10-18T21:25:03.975Z,9.55
2018-10-18T21:27:32.068Z,9.53
2018-10-18T21:30:00.127Z,9.51
2018-10-18T21:32:28.227Z,9.48
2018-10-18T21:34:56.304Z,9.45
2018-10-18T21:37:24.333Z,9.41
2018-10-18T21:39:52.376Z,9.37
2018-10-18T21:42:20.458Z,9.31
2018-10-18T21:44:48.688Z,9.29
2018-10-18T21:47:17.887Z,9.25
2018-10-18T21:49:45.928Z,9.20
2018-10-18T21:52:13.992Z,9.17
2018-10-18T21:54:42.031Z,9.12
2018-10-18T21:57:10.173Z,9.09
2018-10-18T21:59:38.120Z,9.03
2018-10-18T22:02:06.220Z,8.99
2018-10-18T22:04:34.260Z,8.96
2018-10-18T22:07:02.301Z,8.94
2018-10-18T22:09:30.368Z,8.92
2018-10-18T22:11:58.465Z,8.89
2018-10-18T22:14:26.585Z,8.84
2018-10-18T22:16:54.586Z,8.82
2018-10-18T22:19:22.590Z,8.80
2018-10-18T22:21:50.624Z,8.78
2018-10-18T22:24:18.686Z,8.77
2018-10-18T22:26:46.716Z,8.75
2018-10-18T22:29:14.826Z,8.71
2018-10-18T22:31:42.800Z,8.69
2018-10-18T22:34:10.863Z,8.67
2018-10-18T22:36:38.896Z,8.65
2018-10-18T22:39:08.879Z,8.61
2018-10-18T22:41:37.065Z,8.55
2018-10-18T22:44:05.372Z,8.52
2018-10-18T22:46:33.410Z,8.51
2018-10-18T22:49:01.453Z,8.48
2018-10-18T22:51:29.468Z,8.46
2018-10-18T22:53:57.512Z,8.43
2018-10-18T22:56:25.541Z,8.40
2018-10-18T22:58:53.622Z,8.37
2018-10-18T23:01:21.645Z,8.34
2018-10-18T23:03:49.728Z,8.32
2018-10-18T23:06:17.809Z,8.30
2018-10-18T23:08:45.881Z,8.27
2018-10-18T23:11:13.977Z,8.23
2018-10-18T23:13:41.980Z,8.19
2018-10-18T23:16:10.012Z,8.16
2018-10-18T23:18:38.064Z,8.13
2018-10-18T23:21:06.393Z,8.10
2018-10-18T23:23:34.376Z,8.07
2018-10-18T23:26:02.532Z,8.06
2018-10-18T23:28:30.559Z,8.03
2018-10-18T23:30:58.747Z,8.01
2018-10-18T23:33:26.774Z,7.98
2018-10-18T23:36:01.489Z,7.96
2018-10-18T23:38:29.555Z,7.94
2018-10-18T23:40:57.678Z,7.91
2018-10-18T23:43:25.735Z,7.89
2018-10-18T23:45:54.312Z,7.88
2018-10-18T23:48:22.624Z,7.85
2018-10-18T23:50:51.055Z,7.83
2018-10-18T23:53:19.096Z,7.79
2018-10-18T23:55:47.136Z,7.78
2018-10-18T23:58:15.173Z,7.75
